Time;durP1;ratioP1;P1;durP2;ratioP2;P2;SDS_P1;SDS_P2;PMS_P1;PMS_P2;Temp;Humidity;BMP_temperature;BMP_pressure;BME280_temperature;BME280_humidity;BME280_pressure;Samples;Min_cycle;Max_cycle;Signal;HPM_P1;HPM_P2
2021/05/12 06:54:25;;;;;;;1.95;0.68;;;25.30;89.10;;;;;;4953409;23;20699;-68
2021/05/12 06:56:52;;;;;;;3.17;0.80;;;24.40;90.40;;;;;;4947682;29;20263;-71
2021/05/12 06:59:18;;;;;;;1.67;0.65;;;24.30;90.40;;;;;;4936375;29;20208;-69
2021/05/12 07:01:44;;;;;;;4.60;0.70;;;25.50;88.10;;;;;;4917217;29;20297;-71
2021/05/12 07:04:11;;;;;;;2.35;0.70;;;25.80;88.70;;;;;;4914865;29;20210;-71
2021/05/12 07:06:37;;;;;;;2.70;0.90;;;25.60;88.70;;;;;;4919629;29;20731;-71
2021/05/12 07:09:04;;;;;;;2.13;0.70;;;25.30;88.90;;;;;;4933953;29;20209;-73
2021/05/12 07:11:31;;;;;;;2.45;0.65;;;25.60;86.80;;;;;;4934161;29;20232;-69
2021/05/12 07:13:57;;;;;;;4.13;0.93;;;24.90;85.80;;;;;;4934058;29;20243;-68
2021/05/12 07:16:23;;;;;;;3.20;0.77;;;24.00;87.70;;;;;;4934255;29;20212;-69
2021/05/12 07:18:49;;;;;;;3.92;0.85;;;23.70;89.30;;;;;;4934574;29;20215;-67
2021/05/12 07:21:16;;;;;;;3.10;0.60;;;23.40;88.70;;;;;;4933943;29;20236;-72
2021/05/12 07:23:44;;;;;;;3.55;0.75;;;23.40;88.40;;;;;;4934213;29;20662;-71
2021/05/12 07:26:10;;;;;;;3.88;1.48;;;22.60;90.10;;;;;;4933583;29;20537;-72
2021/05/12 07:28:38;;;;;;;4.78;0.70;;;22.40;89.50;;;;;;4934049;29;20205;-69
2021/05/12 07:31:04;;;;;;;2.67;0.93;;;22.00;90.50;;;;;;4933796;29;20225;-68
2021/05/12 07:33:30;;;;;;;4.45;0.70;;;22.60;90.20;;;;;;4933405;29;20247;-69
2021/05/12 07:35:57;;;;;;;4.60;1.02;;;23.50;87.60;;;;;;4934372;29;20216;-72
2021/05/12 07:38:23;;;;;;;5.47;0.70;;;23.70;89.50;;;;;;4937010;29;20204;-70
2021/05/12 07:40:51;;;;;;;4.68;0.80;;;23.50;86.90;;;;;;4937122;29;20240;-67
2021/05/12 07:43:17;;;;;;;3.25;0.75;;;23.30;89.30;;;;;;4937679;29;20209;-72
2021/05/12 07:45:44;;;;;;;3.08;0.77;;;22.90;90.00;;;;;;4937278;29;20805;-68
2021/05/12 07:48:13;;;;;;;4.88;1.10;;;23.30;89.20;;;;;;4937302;29;20675;-69
2021/05/12 07:50:40;;;;;;;2.53;1.15;;;24.20;86.00;;;;;;4937149;29;20229;-68
2021/05/12 07:53:08;;;;;;;4.63;0.85;;;24.60;86.40;;;;;;4936822;29;20254;-68
2021/05/12 07:55:35;;;;;;;5.57;0.80;;;24.40;88.90;;;;;;4936961;29;20671;-71
2021/05/12 07:58:03;;;;;;;9.23;1.42;;;24.80;87.00;;;;;;4936989;29;20663;-69
2021/05/12 08:00:31;;;;;;;2.90;0.70;;;25.10;85.40;;;;;;4937250;29;20734;-69
2021/05/12 08:02:59;;;;;;;4.60;1.05;;;25.30;85.10;;;;;;4938373;29;20240;-67
2021/05/12 08:05:25;;;;;;;4.00;1.42;;;24.40;83.60;;;;;;4938401;29;20216;-67
2021/05/12 08:07:51;;;;;;;4.35;0.90;;;24.60;85.40;;;;;;4938226;29;20615;-70
2021/05/12 08:10:18;;;;;;;2.70;0.60;;;24.40;85.00;;;;;;4937908;29;20228;-68
2021/05/12 08:12:44;;;;;;;3.35;0.80;;;24.30;83.80;;;;;;4938282;29;20239;-71
2021/05/12 08:15:11;;;;;;;3.70;1.08;;;24.00;85.30;;;;;;4937946;29;20209;-69
2021/05/12 08:17:39;;;;;;;3.42;0.70;;;23.00;87.80;;;;;;4934121;29;20212;-73
2021/05/12 08:20:07;;;;;;;2.65;0.80;;;22.50;89.30;;;;;;4935534;29;20577;-74
2021/05/12 08:22:34;;;;;;;4.72;0.73;;;22.00;90.30;;;;;;4937049;29;20217;-69
2021/05/12 08:25:00;;;;;;;2.85;0.80;;;22.50;87.70;;;;;;4936485;29;20216;-68
2021/05/12 08:27:26;;;;;;;1.83;0.75;;;22.70;87.00;;;;;;4936493;29;20209;-68
2021/05/12 08:29:55;;;;;;;3.03;0.60;;;22.20;88.00;;;;;;4936572;29;20212;-71
2021/05/12 08:32:21;;;;;;;3.92;0.82;;;22.10;86.80;;;;;;4936694;29;20204;-71
2021/05/12 08:34:47;;;;;;;1.98;0.60;;;21.50;86.40;;;;;;4936332;29;20220;-73
2021/05/12 08:37:14;;;;;;;1.50;0.65;;;21.00;88.10;;;;;;4936416;29;20213;-74
2021/05/12 08:39:41;;;;;;;2.40;0.80;;;20.70;90.20;;;;;;4935724;29;20208;-68
2021/05/12 08:42:08;;;;;;;3.65;0.50;;;21.20;90.30;;;;;;4936179;29;20209;-68
2021/05/12 08:44:35;;;;;;;2.20;0.88;;;21.60;91.80;;;;;;4937381;29;20212;-78
2021/05/12 08:47:02;;;;;;;3.88;0.73;;;21.50;91.60;;;;;;4937337;29;20197;-70
2021/05/12 08:49:28;;;;;;;2.50;0.60;;;21.20;91.70;;;;;;4937896;29;20219;-70
2021/05/12 08:51:55;;;;;;;1.92;0.60;;;20.90;91.40;;;;;;4936629;29;20621;-71
2021/05/12 08:54:23;;;;;;;4.30;1.23;;;20.30;92.90;;;;;;4936757;29;20241;-72
2021/05/12 08:56:49;;;;;;;4.55;0.55;;;19.80;92.60;;;;;;4934124;29;20671;-71
2021/05/12 08:59:16;;;;;;;1.70;0.43;;;19.90;92.40;;;;;;4936337;29;20220;-69
2021/05/12 09:01:43;;;;;;;5.88;0.50;;;19.70;91.90;;;;;;4935969;29;20236;-71
2021/05/12 09:04:10;;;;;;;2.33;0.40;;;19.60;92.50;;;;;;4936866;29;20676;-72
2021/05/12 09:06:38;;;;;;;3.03;0.90;;;19.80;91.90;;;;;;4937459;29;20217;-73
2021/05/12 09:09:07;;;;;;;2.37;0.70;;;19.50;93.40;;;;;;4936842;29;20213;-71
2021/05/12 09:11:34;;;;;;;2.17;0.67;;;19.30;93.80;;;;;;4936941;29;20222;-71
2021/05/12 09:14:01;;;;;;;4.53;0.70;;;19.30;93.70;;;;;;4937263;29;20291;-71
2021/05/12 09:16:29;;;;;;;1.65;0.52;;;20.10;93.10;;;;;;4937083;29;20217;-71
2021/05/12 09:19:05;;;;;;;2.05;0.70;;;20.70;92.20;;;;;;4937183;29;20216;-72
2021/05/12 09:21:46;;;;;;;2.00;0.50;;;20.60;91.80;;;;;;4937190;29;20316;-71
2021/05/12 09:24:20;;;;;;;5.60;0.70;;;20.00;93.00;;;;;;4937061;29;20275;-71
2021/05/12 09:26:47;;;;;;;1.73;0.52;;;19.80;93.40;;;;;;4936879;29;20209;-70
2021/05/12 09:29:21;;;;;;;3.40;0.95;;;19.80;92.90;;;;;;4936750;29;20209;-71
2021/05/12 09:31:48;;;;;;;1.80;0.63;;;19.90;94.00;;;;;;4936998;29;20231;-71
2021/05/12 09:34:14;;;;;;;6.22;1.33;;;20.20;93.50;;;;;;4936757;29;20275;-71
2021/05/12 09:36:41;;;;;;;3.83;0.70;;;20.50;91.80;;;;;;4936987;29;20209;-71
2021/05/12 09:39:10;;;;;;;2.42;0.55;;;20.50;91.60;;;;;;4937157;29;20268;-72
2021/05/12 09:41:37;;;;;;;1.80;0.60;;;19.90;92.30;;;;;;4936619;29;20699;-71
2021/05/12 09:44:06;;;;;;;2.30;0.70;;;20.40;91.50;;;;;;4936657;29;20212;-71
2021/05/12 09:46:33;;;;;;;2.30;0.80;;;21.00;90.80;;;;;;4936290;29;20205;-70
2021/05/12 09:49:12;;;;;;;1.65;0.70;;;20.80;90.30;;;;;;4936544;29;20228;-71
2021/05/12 09:51:41;;;;;;;3.55;0.50;;;20.40;90.50;;;;;;4936130;29;20588;-71
2021/05/12 09:54:10;;;;;;;4.28;0.65;;;20.30;91.20;;;;;;4936069;29;20731;-70
2021/05/12 09:56:42;;;;;;;2.22;0.65;;;20.60;91.30;;;;;;4936838;29;20212;-70
2021/05/12 09:59:12;;;;;;;3.92;0.77;;;20.50;91.40;;;;;;4935810;29;20209;-71
2021/05/12 10:01:40;;;;;;;2.53;0.70;;;20.40;90.50;;;;;;4936420;29;20231;-72
2021/05/12 10:04:35;;;;;;;2.33;0.63;;;20.40;90.10;;;;;;4936376;29;20216;-72
2021/05/12 10:07:13;;;;;;;2.22;0.50;;;20.50;90.20;;;;;;4934329;29;20664;-69
2021/05/12 10:09:41;;;;;;;1.88;0.50;;;20.10;90.70;;;;;;4935831;29;20212;-71
2021/05/12 10:12:10;;;;;;;1.52;0.88;;;20.30;89.90;;;;;;4936205;29;20205;-70
2021/05/12 10:14:40;;;;;;;2.50;0.68;;;20.30;90.40;;;;;;4936073;29;20236;-71
2021/05/12 10:17:09;;;;;;;2.10;0.80;;;20.40;90.20;;;;;;4935880;29;20208;-70
2021/05/12 10:19:36;;;;;;;0.63;0.40;;;20.50;91.60;;;;;;4936284;29;20223;-70
2021/05/12 10:22:04;;;;;;;1.98;0.68;;;20.20;91.00;;;;;;4936250;29;20213;-74
2021/05/12 10:24:31;;;;;;;2.53;0.60;;;20.30;90.00;;;;;;4936211;29;20212;-73
2021/05/12 10:27:00;;;;;;;1.08;0.40;;;20.60;90.80;;;;;;4936218;29;20205;-71
2021/05/12 10:29:27;;;;;;;1.85;0.63;;;20.60;90.20;;;;;;4936102;29;20213;-72
2021/05/12 10:31:54;;;;;;;1.17;0.52;;;20.80;91.10;;;;;;4935718;29;20239;-69
2021/05/12 10:34:36;;;;;;;1.83;0.30;;;20.80;90.90;;;;;;4935825;29;20240;-70
2021/05/12 10:37:23;;;;;;;3.33;0.47;;;21.10;88.90;;;;;;4935938;29;20212;-70
2021/05/12 10:39:58;;;;;;;1.05;0.30;;;20.70;88.60;;;;;;4935757;29;20231;-70
2021/05/12 10:42:50;;;;;;;2.97;0.50;;;20.40;88.70;;;;;;4935976;29;20212;-70
2021/05/12 10:45:35;;;;;;;2.03;0.43;;;19.80;90.20;;;;;;4935935;29;20299;-70
2021/05/12 10:48:04;;;;;;;2.17;0.52;;;20.00;92.70;;;;;;4935941;29;20211;-70
2021/05/12 10:50:44;;;;;;;1.85;0.60;;;20.30;91.30;;;;;;4935425;29;20710;-71
2021/05/12 10:53:18;;;;;;;3.75;1.00;;;20.30;91.80;;;;;;4935513;29;20628;-71
2021/05/12 10:56:09;;;;;;;2.15;0.85;;;20.30;91.30;;;;;;4935752;29;20260;-71
2021/05/12 10:58:46;;;;;;;1.85;0.47;;;20.30;92.30;;;;;;4935764;29;20209;-70
2021/05/12 11:01:13;;;;;;;2.67;0.40;;;20.00;91.10;;;;;;4935504;29;20228;-70
2021/05/12 11:04:09;;;;;;;1.97;0.40;;;19.80;91.50;;;;;;4935512;29;20714;-70
2021/05/12 11:06:54;;;;;;;1.07;0.40;;;19.20;91.70;;;;;;4886073;29;20213;-69
2021/05/12 11:09:22;;;;;;;1.17;0.43;;;18.60;93.00;;;;;;4922766;29;21255;-70
2021/05/12 11:11:54;;;;;;;1.63;0.53;;;18.30;92.70;;;;;;4924836;29;20225;-70
2021/05/12 11:14:21;;;;;;;0.80;0.30;;;18.10;93.60;;;;;;4932291;29;20237;-71
2021/05/12 11:17:00;;;;;;;0.50;0.20;;;18.00;93.60;;;;;;4931239;29;20208;-72
2021/05/12 11:19:47;;;;;;;1.10;0.27;;;17.80;93.30;;;;;;4923108;29;20205;-71
2021/05/12 11:22:32;;;;;;;2.47;0.30;;;17.40;93.60;;;;;;4931588;29;20700;-69
2021/05/12 11:25:03;;;;;;;0.60;0.20;;;17.30;96.10;;;;;;4925810;29;20233;-69
2021/05/12 11:27:46;;;;;;;0.47;0.17;;;17.30;98.00;;;;;;4922969;29;20788;-70
2021/05/12 11:33:02;;;;;;;0.60;0.20;;;17.70;99.90;;;;;;4932617;29;20638;-71
2021/05/12 11:35:31;;;;;;;1.00;0.40;;;18.10;97.70;;;;;;4930287;29;20217;-70
2021/05/12 11:37:57;;;;;;;1.27;0.30;;;18.30;96.00;;;;;;4924732;29;20250;-70
2021/05/12 11:40:29;;;;;;;1.30;0.20;;;18.40;97.00;;;;;;4926264;29;20224;-71
2021/05/12 11:42:56;;;;;;;1.63;0.40;;;18.30;94.90;;;;;;4923551;29;20210;-69
2021/05/12 11:45:23;;;;;;;1.27;0.43;;;18.50;96.50;;;;;;4934002;29;20209;-69
2021/05/12 11:48:02;;;;;;;2.90;0.50;;;18.70;94.50;;;;;;4932922;29;20583;-72
2021/05/12 11:50:31;;;;;;;1.30;0.80;;;19.00;95.10;;;;;;4927139;29;20238;-71
2021/05/12 11:52:58;;;;;;;2.63;0.30;;;19.10;93.70;;;;;;4932777;29;20228;-68
2021/05/12 11:55:26;;;;;;;3.47;0.30;;;19.30;92.20;;;;;;4935471;29;20560;-71
2021/05/12 11:57:53;;;;;;;1.23;0.30;;;19.40;93.00;;;;;;4919207;29;20311;-70
2021/05/12 12:00:22;;;;;;;2.73;0.57;;;19.30;94.00;;;;;;4937066;29;20225;-70
2021/05/12 12:03:00;;;;;;;1.33;0.30;;;19.00;91.70;;;;;;4938402;29;20209;-71
2021/05/12 12:05:36;;;;;;;3.37;0.53;;;19.10;93.60;;;;;;4938326;29;20205;-70
2021/05/12 12:08:14;;;;;;;1.80;0.40;;;19.10;92.20;;;;;;4922871;29;20213;-71
2021/05/12 12:10:40;;;;;;;3.00;0.53;;;19.30;93.10;;;;;;4932195;29;20275;-71
2021/05/12 12:13:10;;;;;;;2.13;0.47;;;19.40;91.80;;;;;;4938267;29;20233;-70
2021/05/12 12:15:39;;;;;;;1.77;0.50;;;19.60;91.50;;;;;;4937740;29;20213;-70
2021/05/12 12:18:05;;;;;;;3.70;0.70;;;19.60;92.70;;;;;;4937881;29;20247;-69
2021/05/12 12:20:33;;;;;;;8.40;4.33;;;19.60;92.00;;;;;;4936874;29;20755;-69
2021/05/12 12:23:01;;;;;;;2.80;0.53;;;19.70;91.20;;;;;;4936894;29;20223;-69
2021/05/12 12:25:33;;;;;;;3.33;0.50;;;19.60;92.30;;;;;;4936838;29;20299;-69
2021/05/12 12:28:01;;;;;;;2.17;0.57;;;19.40;91.90;;;;;;4938077;29;20240;-69
2021/05/12 12:30:27;;;;;;;3.00;0.60;;;19.60;92.30;;;;;;4937478;29;20608;-69
2021/05/12 12:32:53;;;;;;;2.13;0.57;;;19.60;93.40;;;;;;4937946;29;20220;-69
2021/05/12 12:35:19;;;;;;;7.83;1.20;;;19.50;95.20;;;;;;4937721;29;20250;-69
2021/05/12 12:37:46;;;;;;;3.90;0.60;;;19.60;93.90;;;;;;4937613;29;20272;-69
2021/05/12 12:40:14;;;;;;;2.10;0.40;;;19.80;92.40;;;;;;4935693;29;20235;-70
2021/05/12 12:42:44;;;;;;;3.38;0.90;;;19.90;92.60;;;;;;4937416;29;20248;-69
2021/05/12 12:45:21;;;;;;;1.77;0.50;;;20.00;92.30;;;;;;4937479;29;20224;-69
2021/05/12 12:47:52;;;;;;;2.38;0.55;;;19.80;91.80;;;;;;4937402;29;20224;-70
2021/05/12 12:50:19;;;;;;;2.38;0.52;;;19.50;91.70;;;;;;4936977;29;20228;-69
2021/05/12 12:52:46;;;;;;;2.35;0.60;;;19.40;92.80;;;;;;4937598;29;20676;-70
2021/05/12 12:55:15;;;;;;;7.13;1.10;;;19.30;92.80;;;;;;4936644;29;20213;-70
2021/05/12 12:57:43;;;;;;;1.93;0.70;;;19.50;92.30;;;;;;4936991;29;20723;-69
2021/05/12 13:00:19;;;;;;;2.37;0.70;;;19.70;92.10;;;;;;4936278;29;20237;-69
2021/05/12 13:03:11;;;;;;;4.83;0.70;;;19.60;93.00;;;;;;4936041;29;20216;-70
2021/05/12 13:05:39;;;;;;;2.87;0.70;;;19.70;93.00;;;;;;4917586;29;20744;-69
2021/05/12 13:08:17;;;;;;;3.30;0.90;;;19.70;93.10;;;;;;4935782;29;20238;-70
2021/05/12 13:10:44;;;;;;;4.10;0.60;;;18.70;95.40;;;;;;4936395;29;20233;-70
2021/05/12 13:13:22;;;;;;;5.10;0.40;;;18.60;96.00;;;;;;4937202;29;20274;-69
2021/05/12 13:15:49;;;;;;;2.57;0.47;;;18.20;97.20;;;;;;4936978;29;20243;-69
2021/05/12 13:18:28;;;;;;;1.70;0.60;;;17.90;97.30;;;;;;4936971;29;20213;-70
2021/05/12 13:20:55;;;;;;;5.53;0.93;;;17.30;97.40;;;;;;4937105;29;20228;-69
2021/05/12 13:23:25;;;;;;;3.17;0.47;;;17.10;97.90;;;;;;4936866;29;20219;-70
2021/05/12 13:25:53;;;;;;;1.03;0.50;;;16.60;98.60;;;;;;4937017;29;20209;-70
2021/05/12 13:28:22;;;;;;;1.87;0.60;;;16.90;98.40;;;;;;4937113;29;20213;-70
2021/05/12 13:30:50;;;;;;;1.40;0.33;;;17.10;98.50;;;;;;4936388;29;20237;-70
2021/05/12 13:33:17;;;;;;;2.43;0.57;;;16.90;99.10;;;;;;4936190;29;20275;-69
2021/05/12 13:35:44;;;;;;;3.73;0.57;;;16.90;98.80;;;;;;4936329;29;20672;-71
2021/05/12 13:38:10;;;;;;;2.37;0.50;;;17.10;99.00;;;;;;4936806;29;20324;-70
2021/05/12 13:40:36;;;;;;;2.53;0.53;;;17.30;99.20;;;;;;4936433;29;20225;-70
2021/05/12 13:43:03;;;;;;;2.97;0.60;;;17.40;98.50;;;;;;4936827;29;20216;-70
2021/05/12 13:45:31;;;;;;;1.50;0.40;;;17.40;98.70;;;;;;4936531;29;20217;-69
2021/05/12 13:47:57;;;;;;;1.30;0.30;;;17.50;98.40;;;;;;4936502;29;20212;-70
2021/05/12 13:50:27;;;;;;;5.40;1.10;;;17.30;98.20;;;;;;4936281;29;20636;-70
2021/05/12 13:52:59;;;;;;;1.60;0.37;;;17.40;98.60;;;;;;4936085;29;20227;-70
2021/05/12 13:55:29;;;;;;;1.97;0.43;;;17.40;98.60;;;;;;4936328;29;20205;-69
2021/05/12 14:03:53;;;;;;;1.60;0.40;;;17.20;98.00;;;;;;4936225;29;20568;-70
2021/05/12 14:06:26;;;;;;;2.13;0.60;;;17.10;97.80;;;;;;4935632;29;20291;-70
2021/05/12 14:08:54;;;;;;;1.10;0.40;;;17.40;97.80;;;;;;4936210;29;20209;-70
2021/05/12 14:11:20;;;;;;;2.27;0.40;;;17.50;97.30;;;;;;4935624;29;20231;-70
2021/05/12 14:13:47;;;;;;;1.77;0.50;;;17.60;96.80;;;;;;4935955;29;20240;-70
2021/05/12 14:16:22;;;;;;;3.27;0.60;;;17.60;97.00;;;;;;4936056;29;20296;-69
2021/05/12 14:18:48;;;;;;;2.47;0.67;;;17.70;96.70;;;;;;4935750;29;20219;-70
2021/05/12 14:21:15;;;;;;;1.10;0.70;;;17.50;96.80;;;;;;4936135;29;20293;-70
2021/05/12 14:23:42;;;;;;;1.80;0.50;;;17.70;96.90;;;;;;4935818;29;20216;-70
2021/05/12 14:26:09;;;;;;;2.43;0.50;;;17.80;96.40;;;;;;4935737;29;20208;-69
2021/05/12 14:28:38;;;;;;;4.43;0.83;;;17.80;96.50;;;;;;4935675;29;20734;-70
2021/05/12 14:31:05;;;;;;;1.70;0.37;;;17.60;96.60;;;;;;4935648;29;20267;-69
2021/05/12 14:33:32;;;;;;;2.60;0.50;;;17.50;97.20;;;;;;4935666;29;20235;-70
2021/05/12 14:35:58;;;;;;;2.13;0.77;;;17.40;97.50;;;;;;4935948;29;20209;-70
2021/05/12 14:38:25;;;;;;;3.87;0.80;;;17.40;97.40;;;;;;4935924;29;20209;-70
2021/05/12 14:40:51;;;;;;;4.70;0.53;;;17.40;97.00;;;;;;4935478;29;20224;-70
2021/05/12 14:43:17;;;;;;;1.83;0.60;;;17.70;97.00;;;;;;4935824;29;20228;-70
2021/05/12 14:45:44;;;;;;;2.80;0.70;;;18.00;96.00;;;;;;4935482;29;20205;-69
2021/05/12 14:48:16;;;;;;;2.53;0.90;;;18.20;95.80;;;;;;4935861;29;20216;-70
2021/05/12 14:50:44;;;;;;;3.23;0.53;;;18.10;95.50;;;;;;4935736;29;20235;-69
2021/05/12 14:53:14;;;;;;;1.80;0.70;;;18.10;95.70;;;;;;4935653;29;20259;-69
2021/05/12 14:56:07;;;;;;;2.03;0.60;;;18.10;95.80;;;;;;4935340;29;20708;-70
2021/05/12 15:04:15;;;;;;;0.83;0.40;;;17.20;97.80;;;;;;4935403;29;20240;-70
2021/05/12 15:06:43;;;;;;;1.53;0.53;;;17.10;97.60;;;;;;4935156;29;20259;-70
2021/05/12 15:09:09;;;;;;;2.00;0.60;;;17.20;99.90;;;;;;4935284;29;20209;-70
2021/05/12 15:11:35;;;;;;;2.43;0.70;;;17.10;99.90;;;;;;4935094;29;20779;-70
2021/05/12 15:14:04;;;;;;;1.17;0.50;;;16.70;99.90;;;;;;4934967;29;20283;-70
2021/05/12 15:16:30;;;;;;;1.83;0.50;;;16.30;98.90;;;;;;4935643;29;20212;-69
2021/05/12 15:18:56;;;;;;;1.83;0.63;;;16.00;99.90;;;;;;4935740;29;20216;-69
2021/05/12 15:21:22;;;;;;;3.03;0.70;;;15.90;99.90;;;;;;4935279;29;20240;-69
2021/05/12 15:23:49;;;;;;;2.07;0.53;;;15.80;99.90;;;;;;4935200;29;20664;-70
2021/05/12 15:26:16;;;;;;;2.87;0.80;;;15.80;99.90;;;;;;4935134;29;20691;-69
2021/05/12 15:28:42;;;;;;;3.33;0.80;;;15.80;99.90;;;;;;4935291;29;20209;-69
2021/05/12 15:31:09;;;;;;;1.50;0.60;;;15.70;99.90;;;;;;4935026;29;20229;-70
2021/05/12 15:33:35;;;;;;;1.60;0.40;;;15.60;99.90;;;;;;4935053;29;20252;-70
2021/05/12 15:36:01;;;;;;;11.40;3.33;;;15.50;99.70;;;;;;4935101;29;20216;-69
2021/05/12 15:38:27;;;;;;;2.33;0.90;;;15.70;99.90;;;;;;4935235;29;20571;-69
2021/05/12 15:40:54;;;;;;;0.83;0.47;;;15.80;99.90;;;;;;4935157;29;20288;-70
2021/05/12 15:43:21;;;;;;;1.27;0.50;;;16.00;99.90;;;;;;4935074;29;20710;-69
2021/05/12 15:45:47;;;;;;;1.87;0.60;;;16.20;99.90;;;;;;4935047;29;20220;-69
2021/05/12 15:48:16;;;;;;;2.83;0.50;;;16.30;99.90;;;;;;4935581;29;20213;-69
2021/05/12 15:50:44;;;;;;;1.20;0.30;;;15.70;99.90;;;;;;4935160;29;20319;-70
2021/05/12 15:53:10;;;;;;;2.27;0.53;;;15.70;99.90;;;;;;4934789;29;20220;-69
2021/05/12 15:55:37;;;;;;;1.23;0.50;;;16.00;99.90;;;;;;4934850;29;20209;-69
2021/05/12 15:58:05;;;;;;;0.93;0.50;;;16.20;99.90;;;;;;4936958;29;20247;-69
2021/05/12 16:00:32;;;;;;;4.03;0.70;;;16.40;99.90;;;;;;4938333;29;20773;-70
2021/05/12 16:02:58;;;;;;;1.07;0.50;;;16.70;99.90;;;;;;4938401;29;20267;-69
2021/05/12 16:05:26;;;;;;;1.73;0.60;;;17.00;99.90;;;;;;4938626;29;20212;-69
2021/05/12 16:07:53;;;;;;;4.63;0.70;;;17.30;99.90;;;;;;4938606;29;20212;-70
2021/05/12 16:10:19;;;;;;;2.23;0.60;;;17.30;99.90;;;;;;4938195;29;20696;-70
2021/05/12 16:12:45;;;;;;;1.17;0.47;;;17.40;99.90;;;;;;4933547;29;20213;-69
2021/05/12 16:15:13;;;;;;;3.33;0.70;;;17.50;99.90;;;;;;4933078;29;20240;-69
2021/05/12 16:17:39;;;;;;;1.50;0.43;;;17.70;99.90;;;;;;4932910;29;20299;-69
2021/05/12 16:20:08;;;;;;;0.90;0.53;;;17.70;99.90;;;;;;4935459;29;20577;-69
2021/05/12 16:22:34;;;;;;;1.80;0.60;;;17.70;99.90;;;;;;4936147;29;20570;-69
2021/05/12 16:25:01;;;;;;;2.00;0.70;;;17.70;99.90;;;;;;4937117;29;20545;-68
2021/05/12 16:27:28;;;;;;;2.30;0.50;;;17.80;99.90;;;;;;4937865;29;20213;-70
2021/05/12 16:29:54;;;;;;;1.93;0.43;;;18.10;99.90;;;;;;4938063;29;20277;-70
2021/05/12 16:32:21;;;;;;;2.13;0.70;;;18.10;99.90;;;;;;4937507;29;20220;-70
2021/05/12 16:34:47;;;;;;;1.53;0.53;;;17.70;99.90;;;;;;4937738;29;20245;-70
2021/05/12 16:37:14;;;;;;;1.90;0.50;;;17.30;99.90;;;;;;4937877;29;20213;-69
2021/05/12 16:39:41;;;;;;;4.40;0.60;;;17.00;99.90;;;;;;4937599;29;20217;-70
2021/05/12 16:42:07;;;;;;;1.60;0.43;;;16.80;99.90;;;;;;4937608;29;20772;-69
2021/05/12 16:44:34;;;;;;;1.83;0.50;;;16.60;99.90;;;;;;4936223;29;20209;-68
2021/05/12 16:47:01;;;;;;;1.33;0.60;;;16.70;99.90;;;;;;4937704;29;20216;-70
2021/05/12 16:49:31;;;;;;;2.53;0.77;;;16.80;99.90;;;;;;4937599;29;20219;-69
2021/05/12 16:51:57;;;;;;;0.90;0.40;;;16.70;99.90;;;;;;4937506;29;20264;-70
2021/05/12 16:54:23;;;;;;;0.77;0.40;;;16.70;99.90;;;;;;4937279;29;20241;-70
2021/05/12 16:56:49;;;;;;;1.40;0.70;;;16.90;99.90;;;;;;4937284;29;20205;-69
2021/05/12 16:59:16;;;;;;;3.07;0.90;;;16.90;99.90;;;;;;4937236;29;20204;-70
2021/05/12 17:01:42;;;;;;;2.23;0.60;;;17.00;99.90;;;;;;4937497;29;20244;-70
2021/05/12 17:04:09;;;;;;;1.53;0.87;;;17.00;99.90;;;;;;4937397;29;20219;-70
2021/05/12 17:06:36;;;;;;;4.13;0.77;;;17.00;99.90;;;;;;4937089;29;20684;-70
2021/05/12 17:09:03;;;;;;;2.57;0.57;;;16.80;99.90;;;;;;4936981;29;20208;-70
2021/05/12 17:11:32;;;;;;;2.73;1.20;;;16.40;99.90;;;;;;4936989;29;20240;-70
2021/05/12 17:13:58;;;;;;;2.63;0.40;;;16.10;99.90;;;;;;4937173;29;20232;-70
2021/05/12 17:16:25;;;;;;;1.13;0.57;;;15.80;99.90;;;;;;4937149;29;20672;-70
2021/05/12 17:18:51;;;;;;;2.07;0.50;;;15.60;99.90;;;;;;4937128;29;20212;-70
2021/05/12 17:21:17;;;;;;;1.93;0.40;;;15.70;99.90;;;;;;4936968;29;20237;-70
2021/05/12 17:23:44;;;;;;;1.97;0.67;;;15.60;99.90;;;;;;4937072;29;20216;-70
2021/05/12 17:26:14;;;;;;;2.23;0.60;;;15.50;99.90;;;;;;4936853;29;20213;-70
2021/05/12 17:28:44;;;;;;;5.33;0.70;;;15.50;99.90;;;;;;4936919;29;20209;-70
2021/05/12 17:31:10;;;;;;;1.87;0.40;;;15.30;99.90;;;;;;4936986;29;20237;-70
2021/05/12 17:33:36;;;;;;;3.50;1.20;;;15.40;99.90;;;;;;4936797;29;20288;-69
2021/05/12 17:36:03;;;;;;;1.77;0.70;;;15.60;99.90;;;;;;4937034;29;20220;-71
2021/05/12 17:38:29;;;;;;;4.57;0.90;;;15.60;99.90;;;;;;4936815;29;20294;-70
2021/05/12 17:40:56;;;;;;;0.73;0.50;;;15.80;99.90;;;;;;4936314;29;20225;-70
2021/05/12 17:43:22;;;;;;;2.50;0.60;;;16.00;99.90;;;;;;4936760;29;20209;-70
2021/05/12 17:45:49;;;;;;;3.57;1.00;;;16.30;99.90;;;;;;4936710;29;20205;-70
2021/05/12 17:48:16;;;;;;;1.07;0.63;;;16.50;99.90;;;;;;4936944;29;20538;-70
2021/05/12 17:50:43;;;;;;;2.33;0.80;;;16.60;99.90;;;;;;4936462;29;20229;-71
2021/05/12 17:53:09;;;;;;;3.47;1.37;;;16.70;99.90;;;;;;4936359;29;20275;-70
2021/05/12 17:55:35;;;;;;;4.93;1.73;;;16.70;99.90;;;;;;4936154;29;20240;-70
2021/05/12 17:58:03;;;;;;;3.87;1.23;;;16.80;99.90;;;;;;4936542;29;20220;-69
2021/05/12 18:00:29;;;;;;;4.70;0.67;;;16.60;99.90;;;;;;4936385;29;20233;-70
2021/05/12 18:02:55;;;;;;;7.63;1.90;;;16.50;99.90;;;;;;4936449;29;20334;-70
2021/05/12 18:05:24;;;;;;;2.87;1.60;;;16.40;99.90;;;;;;4936313;29;20219;-70
2021/05/12 18:07:52;;;;;;;2.93;1.00;;;16.40;99.90;;;;;;4936126;29;20217;-71
2021/05/12 18:10:27;;;;;;;2.47;0.70;;;16.50;99.90;;;;;;4936214;29;20588;-70
2021/05/12 18:13:20;;;;;;;4.13;0.80;;;16.40;99.90;;;;;;4936121;29;20208;-71
2021/05/12 18:18:34;;;;;;;2.57;0.60;;;16.20;99.90;;;;;;4936017;29;20346;-71
2021/05/12 18:21:01;;;;;;;5.20;1.30;;;16.10;99.90;;;;;;4935569;29;20359;-70
2021/05/12 18:23:28;;;;;;;2.63;0.90;;;16.30;99.90;;;;;;4935618;29;20213;-70
2021/05/12 18:25:55;;;;;;;5.13;2.13;;;16.30;99.90;;;;;;4927099;29;20197;-70
2021/05/12 18:28:22;;;;;;;2.60;0.90;;;16.50;99.90;;;;;;4924490;29;20205;-71
2021/05/12 18:30:50;;;;;;;4.07;1.30;;;16.40;99.90;;;;;;4925055;29;20313;-70
2021/05/12 18:33:16;;;;;;;3.47;0.67;;;16.20;99.90;;;;;;4925743;29;20201;-71
2021/05/12 18:35:45;;;;;;;2.13;0.50;;;16.00;99.90;;;;;;4924521;29;20261;-71
2021/05/12 18:38:13;;;;;;;3.37;0.80;;;15.70;99.90;;;;;;4924310;29;20763;-70
2021/05/12 18:40:40;;;;;;;1.87;0.50;;;15.50;99.90;;;;;;4925829;29;20255;-70
2021/05/12 18:43:07;;;;;;;3.03;0.50;;;15.20;99.90;;;;;;4924554;29;20292;-69
2021/05/12 18:45:36;;;;;;;1.13;0.33;;;15.10;99.90;;;;;;4924092;29;20204;-70
2021/05/12 18:48:09;;;;;;;1.70;0.60;;;15.20;99.90;;;;;;4924002;29;20216;-70
2021/05/12 18:50:36;;;;;;;3.27;0.73;;;15.10;99.90;;;;;;4924045;29;20228;-70
2021/05/12 18:53:03;;;;;;;2.03;0.90;;;15.10;99.90;;;;;;4925742;29;20213;-70
2021/05/12 18:55:29;;;;;;;3.10;1.13;;;15.30;99.90;;;;;;4924866;29;20229;-70
2021/05/12 18:57:55;;;;;;;2.73;0.70;;;15.40;99.90;;;;;;4923517;29;20877;-70
2021/05/12 19:00:23;;;;;;;1.57;0.80;;;15.50;99.90;;;;;;4924943;29;20759;-70
2021/05/12 19:02:52;;;;;;;2.23;0.93;;;15.40;99.90;;;;;;4922664;29;20720;-70
2021/05/12 19:05:20;;;;;;;3.23;1.10;;;15.20;99.90;;;;;;4928883;29;20209;-70
2021/05/12 19:07:52;;;;;;;2.63;0.80;;;15.20;99.90;;;;;;4927957;29;20275;-70
2021/05/12 19:10:26;;;;;;;3.43;1.23;;;15.00;99.90;;;;;;4926505;29;20232;-69
2021/05/12 19:12:56;;;;;;;3.27;0.80;;;15.10;99.90;;;;;;4932039;29;20260;-69
2021/05/12 19:15:26;;;;;;;2.50;0.50;;;15.10;99.90;;;;;;4922891;29;20597;-70
2021/05/12 19:17:58;;;;;;;1.87;0.53;;;14.90;99.90;;;;;;4930007;29;20237;-70
2021/05/12 19:20:28;;;;;;;0.60;0.40;;;14.70;99.90;;;;;;4927958;29;20232;-70
2021/05/12 19:22:59;;;;;;;3.07;0.60;;;14.70;99.90;;;;;;4927041;29;20320;-69
2021/05/12 19:25:34;;;;;;;1.03;0.60;;;14.80;99.90;;;;;;4921702;29;20218;-70
2021/05/12 19:28:10;;;;;;;2.83;0.60;;;14.80;99.90;;;;;;4929028;29;20247;-70
2021/05/12 19:33:53;;;;;;;3.67;0.80;;;14.50;99.90;;;;;;4930948;29;20256;-69
2021/05/12 19:34:02;;;;;;;2.40;0.43;;;14.40;99.90;;;;;;4926336;29;20700;-70
2021/05/12 19:41:57;;;;;;;1.87;0.80;;;13.80;99.90;;;;;;4926263;29;20712;-70
2021/05/12 19:44:24;;;;;;;1.57;0.50;;;13.70;99.90;;;;;;4931976;29;20217;-70
2021/05/12 19:46:50;;;;;;;2.53;0.63;;;13.60;99.90;;;;;;4933144;29;20208;-69
2021/05/12 19:49:16;;;;;;;2.13;0.67;;;13.50;99.90;;;;;;4929798;29;20220;-69
2021/05/12 19:51:45;;;;;;;4.57;1.30;;;13.30;99.90;;;;;;4930707;29;20744;-70
2021/05/12 19:54:13;;;;;;;1.50;0.50;;;13.40;99.90;;;;;;4930219;29;20726;-70
2021/05/12 19:56:54;;;;;;;4.13;0.67;;;13.30;99.90;;;;;;4933196;29;20283;-69
2021/05/12 19:59:20;;;;;;;1.27;0.60;;;13.20;99.90;;;;;;4930535;29;20216;-70
2021/05/12 20:01:46;;;;;;;3.57;0.40;;;13.40;99.90;;;;;;4918995;29;20240;-70
2021/05/12 20:04:15;;;;;;;3.67;0.60;;;13.50;99.90;;;;;;4921579;29;20205;-68
2021/05/12 20:06:47;;;;;;;1.77;0.70;;;13.50;99.90;;;;;;4935791;29;20205;-68
2021/05/12 20:09:19;;;;;;;4.43;0.63;;;13.50;99.90;;;;;;4936207;29;20664;-68
2021/05/12 20:11:49;;;;;;;2.10;0.60;;;13.40;99.90;;;;;;4936679;29;20284;-67
2021/05/12 20:14:15;;;;;;;2.17;0.60;;;13.30;99.90;;;;;;4936901;29;20244;-69